sensor_id;sensor_type;location;lat;lon;timestamp;P1;durP1;ratioP1;P2;durP2;ratioP2
37383;SDS011;23258;49.718;11.082;2023-12-20T00:01:59;6.88;;;6.20;;
37383;SDS011;23258;49.718;11.082;2023-12-20T00:04:29;5.82;;;5.22;;
37383;SDS011;23258;49.718;11.082;2023-12-20T00:06:59;6.65;;;5.90;;
37383;SDS011;23258;49.718;11.082;2023-12-20T00:09:31;7.07;;;6.03;;
37383;SDS011;23258;49.718;11.082;2023-12-20T00:12:01;7.15;;;5.57;;
37383;SDS011;23258;49.718;11.082;2023-12-20T00:14:31;7.87;;;6.20;;
37383;SDS011;23258;49.718;11.082;2023-12-20T00:17:00;6.43;;;5.80;;
37383;SDS011;23258;49.718;11.082;2023-12-20T00:19:30;6.20;;;5.63;;
37383;SDS011;23258;49.718;11.082;2023-12-20T00:22:00;7.10;;;5.40;;
37383;SDS011;23258;49.718;11.082;2023-12-20T00:24:32;9.27;;;6.07;;
37383;SDS011;23258;49.718;11.082;2023-12-20T00:27:02;6.25;;;5.65;;
37383;SDS011;23258;49.718;11.082;2023-12-20T00:29:31;6.78;;;5.95;;
37383;SDS011;23258;49.718;11.082;2023-12-20T00:32:01;6.53;;;5.75;;
37383;SDS011;23258;49.718;11.082;2023-12-20T00:34:31;5.90;;;5.05;;
37383;SDS011;23258;49.718;11.082;2023-12-20T00:37:00;6.40;;;5.90;;
37383;SDS011;23258;49.718;11.082;2023-12-20T00:39:33;6.90;;;6.00;;
37383;SDS011;23258;49.718;11.082;2023-12-20T00:42:03;6.03;;;5.43;;
37383;SDS011;23258;49.718;11.082;2023-12-20T00:44:32;7.15;;;5.05;;
37383;SDS011;23258;49.718;11.082;2023-12-20T00:47:02;6.35;;;5.75;;
37383;SDS011;23258;49.718;11.082;2023-12-20T00:49:32;6.03;;;5.32;;
37383;SDS011;23258;49.718;11.082;2023-12-20T00:52:02;5.75;;;5.18;;
37383;SDS011;23258;49.718;11.082;2023-12-20T00:54:34;6.05;;;5.35;;
37383;SDS011;23258;49.718;11.082;2023-12-20T00:57:04;8.68;;;5.22;;
37383;SDS011;23258;49.718;11.082;2023-12-20T00:59:34;6.53;;;5.35;;
37383;SDS011;23258;49.718;11.082;2023-12-20T01:02:04;5.22;;;4.72;;
37383;SDS011;23258;49.718;11.082;2023-12-20T01:04:34;6.22;;;5.22;;
37383;SDS011;23258;49.718;11.082;2023-12-20T01:07:04;4.80;;;4.40;;
37383;SDS011;23258;49.718;11.082;2023-12-20T01:09:36;5.28;;;4.78;;
37383;SDS011;23258;49.718;11.082;2023-12-20T01:12:06;5.10;;;4.60;;
37383;SDS011;23258;49.718;11.082;2023-12-20T01:14:35;4.35;;;3.95;;
37383;SDS011;23258;49.718;11.082;2023-12-20T01:17:06;4.55;;;4.20;;
37383;SDS011;23258;49.718;11.082;2023-12-20T01:19:36;4.22;;;3.92;;
37383;SDS011;23258;49.718;11.082;2023-12-20T01:22:06;4.03;;;3.47;;
37383;SDS011;23258;49.718;11.082;2023-12-20T01:24:38;3.72;;;3.35;;
37383;SDS011;23258;49.718;11.082;2023-12-20T01:27:09;4.40;;;4.00;;
37383;SDS011;23258;49.718;11.082;2023-12-20T01:29:39;3.75;;;3.50;;
37383;SDS011;23258;49.718;11.082;2023-12-20T01:32:08;3.60;;;3.30;;
37383;SDS011;23258;49.718;11.082;2023-12-20T01:34:38;3.45;;;3.15;;
37383;SDS011;23258;49.718;11.082;2023-12-20T01:37:08;5.57;;;3.63;;
37383;SDS011;23258;49.718;11.082;2023-12-20T01:39:40;4.18;;;3.17;;
37383;SDS011;23258;49.718;11.082;2023-12-20T01:42:10;3.17;;;2.95;;
37383;SDS011;23258;49.718;11.082;2023-12-20T01:44:40;3.30;;;3.03;;
37383;SDS011;23258;49.718;11.082;2023-12-20T01:47:09;3.42;;;3.13;;
37383;SDS011;23258;49.718;11.082;2023-12-20T01:49:39;5.22;;;2.83;;
37383;SDS011;23258;49.718;11.082;2023-12-20T01:52:09;3.73;;;3.43;;
37383;SDS011;23258;49.718;11.082;2023-12-20T01:54:41;3.25;;;2.95;;
37383;SDS011;23258;49.718;11.082;2023-12-20T01:57:12;2.97;;;2.78;;
37383;SDS011;23258;49.718;11.082;2023-12-20T01:59:42;2.80;;;2.60;;
37383;SDS011;23258;49.718;11.082;2023-12-20T02:02:12;2.63;;;2.42;;
37383;SDS011;23258;49.718;11.082;2023-12-20T02:04:42;2.72;;;2.53;;
37383;SDS011;23258;49.718;11.082;2023-12-20T02:07:12;2.22;;;2.10;;
37383;SDS011;23258;49.718;11.082;2023-12-20T02:09:45;2.40;;;2.20;;
37383;SDS011;23258;49.718;11.082;2023-12-20T02:12:14;1.73;;;1.63;;
37383;SDS011;23258;49.718;11.082;2023-12-20T02:14:44;1.88;;;1.77;;
37383;SDS011;23258;49.718;11.082;2023-12-20T02:17:14;2.40;;;2.20;;
37383;SDS011;23258;49.718;11.082;2023-12-20T02:19:44;1.75;;;1.65;;
37383;SDS011;23258;49.718;11.082;2023-12-20T02:22:17;2.28;;;2.08;;
37383;SDS011;23258;49.718;11.082;2023-12-20T02:24:47;2.15;;;2.05;;
37383;SDS011;23258;49.718;11.082;2023-12-20T02:27:17;2.20;;;2.10;;
37383;SDS011;23258;49.718;11.082;2023-12-20T02:29:48;3.65;;;1.80;;
37383;SDS011;23258;49.718;11.082;2023-12-20T02:32:19;1.73;;;1.63;;
37383;SDS011;23258;49.718;11.082;2023-12-20T02:34:49;1.65;;;1.55;;
37383;SDS011;23258;49.718;11.082;2023-12-20T02:37:22;1.83;;;1.73;;
37383;SDS011;23258;49.718;11.082;2023-12-20T02:39:51;1.38;;;1.38;;
37383;SDS011;23258;49.718;11.082;2023-12-20T02:42:21;1.80;;;1.70;;
37383;SDS011;23258;49.718;11.082;2023-12-20T02:44:51;1.77;;;1.27;;
37383;SDS011;23258;49.718;11.082;2023-12-20T02:47:20;1.50;;;1.40;;
37383;SDS011;23258;49.718;11.082;2023-12-20T02:49:50;1.77;;;1.55;;
37383;SDS011;23258;49.718;11.082;2023-12-20T02:52:22;1.58;;;1.48;;
37383;SDS011;23258;49.718;11.082;2023-12-20T02:54:52;1.88;;;1.77;;
37383;SDS011;23258;49.718;11.082;2023-12-20T02:57:22;1.30;;;1.30;;
37383;SDS011;23258;49.718;11.082;2023-12-20T02:59:52;1.60;;;1.50;;
37383;SDS011;23258;49.718;11.082;2023-12-20T03:02:21;1.40;;;1.30;;
37383;SDS011;23258;49.718;11.082;2023-12-20T03:04:51;1.98;;;1.38;;
37383;SDS011;23258;49.718;11.082;2023-12-20T03:07:24;1.55;;;1.45;;
37383;SDS011;23258;49.718;11.082;2023-12-20T03:09:54;1.15;;;1.15;;
37383;SDS011;23258;49.718;11.082;2023-12-20T03:12:44;0.90;;;0.90;;
37383;SDS011;23258;49.718;11.082;2023-12-20T03:15:14;1.30;;;1.30;;
37383;SDS011;23258;49.718;11.082;2023-12-20T03:17:43;1.48;;;1.30;;
37383;SDS011;23258;49.718;11.082;2023-12-20T03:20:13;0.93;;;0.93;;
37383;SDS011;23258;49.718;11.082;2023-12-20T03:22:46;1.40;;;1.30;;
37383;SDS011;23258;49.718;11.082;2023-12-20T03:25:15;1.42;;;1.33;;
37383;SDS011;23258;49.718;11.082;2023-12-20T03:27:45;1.40;;;1.30;;
37383;SDS011;23258;49.718;11.082;2023-12-20T03:30:15;1.50;;;1.40;;
37383;SDS011;23258;49.718;11.082;2023-12-20T03:32:45;0.93;;;0.93;;
37383;SDS011;23258;49.718;11.082;2023-12-20T03:35:15;1.55;;;1.27;;
37383;SDS011;23258;49.718;11.082;2023-12-20T03:37:47;1.38;;;1.30;;
37383;SDS011;23258;49.718;11.082;2023-12-20T03:40:16;1.00;;;1.00;;
37383;SDS011;23258;49.718;11.082;2023-12-20T03:42:46;1.15;;;1.13;;
37383;SDS011;23258;49.718;11.082;2023-12-20T03:45:16;0.93;;;0.93;;
37383;SDS011;23258;49.718;11.082;2023-12-20T03:47:46;1.33;;;1.23;;
37383;SDS011;23258;49.718;11.082;2023-12-20T03:50:16;1.45;;;1.35;;
37383;SDS011;23258;49.718;11.082;2023-12-20T03:52:49;1.45;;;1.35;;
37383;SDS011;23258;49.718;11.082;2023-12-20T03:55:19;1.47;;;1.37;;
37383;SDS011;23258;49.718;11.082;2023-12-20T03:57:48;1.05;;;1.00;;
37383;SDS011;23258;49.718;11.082;2023-12-20T04:00:18;1.50;;;1.40;;
37383;SDS011;23258;49.718;11.082;2023-12-20T04:02:48;1.27;;;1.27;;
37383;SDS011;23258;49.718;11.082;2023-12-20T04:05:17;0.80;;;0.80;;
37383;SDS011;23258;49.718;11.082;2023-12-20T04:07:50;0.90;;;0.90;;
37383;SDS011;23258;49.718;11.082;2023-12-20T04:10:20;0.85;;;0.85;;
37383;SDS011;23258;49.718;11.082;2023-12-20T04:12:50;0.88;;;0.88;;
37383;SDS011;23258;49.718;11.082;2023-12-20T04:15:19;1.02;;;0.98;;
37383;SDS011;23258;49.718;11.082;2023-12-20T04:17:49;1.08;;;1.08;;
37383;SDS011;23258;49.718;11.082;2023-12-20T04:20:19;1.38;;;1.27;;
37383;SDS011;23258;49.718;11.082;2023-12-20T04:22:51;0.60;;;0.60;;
37383;SDS011;23258;49.718;11.082;2023-12-20T04:25:21;1.58;;;1.02;;
37383;SDS011;23258;49.718;11.082;2023-12-20T04:27:50;1.42;;;1.33;;
37383;SDS011;23258;49.718;11.082;2023-12-20T04:30:20;1.10;;;1.10;;
37383;SDS011;23258;49.718;11.082;2023-12-20T04:32:50;1.05;;;1.05;;
37383;SDS011;23258;49.718;11.082;2023-12-20T04:35:19;0.90;;;0.90;;
37383;SDS011;23258;49.718;11.082;2023-12-20T04:37:52;1.20;;;1.10;;
37383;SDS011;23258;49.718;11.082;2023-12-20T04:40:21;0.80;;;0.80;;
37383;SDS011;23258;49.718;11.082;2023-12-20T04:42:51;1.10;;;1.10;;
37383;SDS011;23258;49.718;11.082;2023-12-20T04:45:21;1.08;;;1.08;;
37383;SDS011;23258;49.718;11.082;2023-12-20T04:47:51;2.47;;;1.10;;
37383;SDS011;23258;49.718;11.082;2023-12-20T04:50:21;0.80;;;0.80;;
37383;SDS011;23258;49.718;11.082;2023-12-20T04:52:53;0.88;;;0.88;;
37383;SDS011;23258;49.718;11.082;2023-12-20T04:55:23;0.95;;;0.95;;
37383;SDS011;23258;49.718;11.082;2023-12-20T04:57:52;1.08;;;1.08;;
37383;SDS011;23258;49.718;11.082;2023-12-20T05:00:23;0.95;;;0.95;;
37383;SDS011;23258;49.718;11.082;2023-12-20T05:02:50;0.95;;;0.90;;
37383;SDS011;23258;49.718;11.082;2023-12-20T05:05:20;0.90;;;0.90;;
37383;SDS011;23258;49.718;11.082;2023-12-20T05:07:53;1.10;;;1.10;;
37383;SDS011;23258;49.718;11.082;2023-12-20T05:10:22;1.00;;;1.00;;
37383;SDS011;23258;49.718;11.082;2023-12-20T05:12:54;1.42;;;1.42;;
37383;SDS011;23258;49.718;11.082;2023-12-20T05:15:26;1.05;;;1.05;;
37383;SDS011;23258;49.718;11.082;2023-12-20T05:17:56;1.30;;;1.20;;
37383;SDS011;23258;49.718;11.082;2023-12-20T05:20:25;1.00;;;1.00;;
37383;SDS011;23258;49.718;11.082;2023-12-20T05:22:58;1.05;;;1.05;;
37383;SDS011;23258;49.718;11.082;2023-12-20T05:25:27;0.85;;;0.85;;
37383;SDS011;23258;49.718;11.082;2023-12-20T05:27:57;1.90;;;1.33;;
37383;SDS011;23258;49.718;11.082;2023-12-20T05:30:27;1.02;;;1.02;;
37383;SDS011;23258;49.718;11.082;2023-12-20T05:32:57;1.98;;;1.65;;
37383;SDS011;23258;49.718;11.082;2023-12-20T05:35:26;4.57;;;3.05;;
37383;SDS011;23258;49.718;11.082;2023-12-20T05:37:59;2.65;;;2.45;;
37383;SDS011;23258;49.718;11.082;2023-12-20T05:40:28;1.20;;;1.20;;
37383;SDS011;23258;49.718;11.082;2023-12-20T05:42:58;2.17;;;1.13;;
37383;SDS011;23258;49.718;11.082;2023-12-20T05:45:28;1.65;;;1.50;;
37383;SDS011;23258;49.718;11.082;2023-12-20T05:47:58;1.25;;;1.25;;
37383;SDS011;23258;49.718;11.082;2023-12-20T05:50:28;1.30;;;1.30;;
37383;SDS011;23258;49.718;11.082;2023-12-20T05:53:00;1.60;;;1.50;;
37383;SDS011;23258;49.718;11.082;2023-12-20T05:55:30;1.27;;;1.27;;
37383;SDS011;23258;49.718;11.082;2023-12-20T05:57:59;2.10;;;1.35;;
37383;SDS011;23258;49.718;11.082;2023-12-20T06:00:29;1.05;;;1.05;;
37383;SDS011;23258;49.718;11.082;2023-12-20T06:02:59;1.52;;;1.42;;
37383;SDS011;23258;49.718;11.082;2023-12-20T06:05:29;1.00;;;1.00;;
37383;SDS011;23258;49.718;11.082;2023-12-20T06:08:01;2.10;;;1.98;;
37383;SDS011;23258;49.718;11.082;2023-12-20T06:10:31;2.72;;;2.53;;
37383;SDS011;23258;49.718;11.082;2023-12-20T06:13:00;1.58;;;1.48;;
37383;SDS011;23258;49.718;11.082;2023-12-20T06:15:31;1.50;;;1.40;;
37383;SDS011;23258;49.718;11.082;2023-12-20T06:18:02;1.67;;;1.58;;
37383;SDS011;23258;49.718;11.082;2023-12-20T06:20:36;1.75;;;1.65;;
37383;SDS011;23258;49.718;11.082;2023-12-20T06:23:08;1.73;;;1.63;;
37383;SDS011;23258;49.718;11.082;2023-12-20T06:25:38;1.60;;;1.50;;
37383;SDS011;23258;49.718;11.082;2023-12-20T06:28:07;1.38;;;1.38;;
37383;SDS011;23258;49.718;11.082;2023-12-20T06:30:41;1.63;;;1.52;;
37383;SDS011;23258;49.718;11.082;2023-12-20T06:33:11;1.63;;;1.52;;
37383;SDS011;23258;49.718;11.082;2023-12-20T06:35:41;1.63;;;1.52;;
37383;SDS011;23258;49.718;11.082;2023-12-20T06:38:13;1.63;;;1.60;;
37383;SDS011;23258;49.718;11.082;2023-12-20T06:40:43;1.88;;;1.77;;
37383;SDS011;23258;49.718;11.082;2023-12-20T06:43:12;2.08;;;1.98;;
37383;SDS011;23258;49.718;11.082;2023-12-20T06:46:02;1.95;;;1.85;;
37383;SDS011;23258;49.718;11.082;2023-12-20T06:48:32;2.42;;;2.33;;
37383;SDS011;23258;49.718;11.082;2023-12-20T06:51:02;2.30;;;2.20;;
37383;SDS011;23258;49.718;11.082;2023-12-20T06:53:34;2.33;;;2.22;;
37383;SDS011;23258;49.718;11.082;2023-12-20T06:56:04;2.25;;;2.15;;
37383;SDS011;23258;49.718;11.082;2023-12-20T06:58:34;3.10;;;2.90;;
37383;SDS011;23258;49.718;11.082;2023-12-20T07:01:04;2.88;;;2.67;;
37383;SDS011;23258;49.718;11.082;2023-12-20T07:03:34;6.07;;;3.42;;
37383;SDS011;23258;49.718;11.082;2023-12-20T07:06:04;3.67;;;3.38;;
37383;SDS011;23258;49.718;11.082;2023-12-20T07:08:36;3.25;;;3.03;;
37383;SDS011;23258;49.718;11.082;2023-12-20T07:11:06;3.40;;;3.13;;
37383;SDS011;23258;49.718;11.082;2023-12-20T07:13:36;3.28;;;3.05;;
37383;SDS011;23258;49.718;11.082;2023-12-20T07:16:06;2.78;;;2.58;;
37383;SDS011;23258;49.718;11.082;2023-12-20T07:18:36;2.80;;;2.60;;
37383;SDS011;23258;49.718;11.082;2023-12-20T07:21:05;2.85;;;2.65;;
37383;SDS011;23258;49.718;11.082;2023-12-20T07:23:38;2.30;;;2.20;;
37383;SDS011;23258;49.718;11.082;2023-12-20T07:26:08;2.55;;;2.42;;
37383;SDS011;23258;49.718;11.082;2023-12-20T07:28:38;2.15;;;2.05;;
37383;SDS011;23258;49.718;11.082;2023-12-20T07:31:07;2.22;;;2.13;;
37383;SDS011;23258;49.718;11.082;2023-12-20T07:33:37;2.67;;;2.47;;
37383;SDS011;23258;49.718;11.082;2023-12-20T07:36:07;2.45;;;2.25;;
37383;SDS011;23258;49.718;11.082;2023-12-20T07:38:41;2.45;;;2.33;;
37383;SDS011;23258;49.718;11.082;2023-12-20T07:41:11;3.13;;;2.90;;
37383;SDS011;23258;49.718;11.082;2023-12-20T07:43:42;3.03;;;2.83;;
37383;SDS011;23258;49.718;11.082;2023-12-20T07:46:12;2.97;;;2.78;;
37383;SDS011;23258;49.718;11.082;2023-12-20T07:48:42;3.20;;;3.00;;
37383;SDS011;23258;49.718;11.082;2023-12-20T07:51:13;3.00;;;2.80;;
37383;SDS011;23258;49.718;11.082;2023-12-20T07:53:45;2.85;;;2.67;;
37383;SDS011;23258;49.718;11.082;2023-12-20T07:56:15;2.78;;;2.58;;
37383;SDS011;23258;49.718;11.082;2023-12-20T07:58:45;3.33;;;3.13;;
37383;SDS011;23258;49.718;11.082;2023-12-20T08:01:19;3.28;;;3.08;;
37383;SDS011;23258;49.718;11.082;2023-12-20T08:03:49;3.83;;;3.53;;
37383;SDS011;23258;49.718;11.082;2023-12-20T08:06:19;3.10;;;2.80;;
37383;SDS011;23258;49.718;11.082;2023-12-20T08:08:52;3.15;;;2.90;;
37383;SDS011;23258;49.718;11.082;2023-12-20T08:11:32;3.63;;;3.33;;
37383;SDS011;23258;49.718;11.082;2023-12-20T08:14:01;3.38;;;3.08;;
37383;SDS011;23258;49.718;11.082;2023-12-20T08:16:31;3.70;;;3.40;;
37383;SDS011;23258;49.718;11.082;2023-12-20T08:19:01;3.88;;;3.58;;
37383;SDS011;23258;49.718;11.082;2023-12-20T08:21:31;3.60;;;3.35;;
37383;SDS011;23258;49.718;11.082;2023-12-20T08:24:07;3.58;;;3.30;;
37383;SDS011;23258;49.718;11.082;2023-12-20T08:26:37;3.15;;;2.95;;
37383;SDS011;23258;49.718;11.082;2023-12-20T08:29:07;3.08;;;2.88;;
37383;SDS011;23258;49.718;11.082;2023-12-20T08:31:37;3.10;;;2.90;;
37383;SDS011;23258;49.718;11.082;2023-12-20T08:34:06;3.75;;;3.42;;
37383;SDS011;23258;49.718;11.082;2023-12-20T08:36:38;3.47;;;3.17;;
37383;SDS011;23258;49.718;11.082;2023-12-20T08:39:11;3.83;;;3.38;;
37383;SDS011;23258;49.718;11.082;2023-12-20T08:41:41;3.78;;;3.50;;
37383;SDS011;23258;49.718;11.082;2023-12-20T08:44:10;3.90;;;3.55;;
37383;SDS011;23258;49.718;11.082;2023-12-20T08:46:40;3.70;;;3.40;;
37383;SDS011;23258;49.718;11.082;2023-12-20T08:49:10;3.65;;;3.38;;
37383;SDS011;23258;49.718;11.082;2023-12-20T08:51:40;3.78;;;3.47;;
37383;SDS011;23258;49.718;11.082;2023-12-20T08:54:12;4.22;;;3.92;;
37383;SDS011;23258;49.718;11.082;2023-12-20T08:56:43;4.18;;;3.78;;
37383;SDS011;23258;49.718;11.082;2023-12-20T08:59:13;3.92;;;3.63;;
37383;SDS011;23258;49.718;11.082;2023-12-20T09:01:42;3.90;;;3.53;;
37383;SDS011;23258;49.718;11.082;2023-12-20T09:04:13;3.42;;;3.10;;
37383;SDS011;23258;49.718;11.082;2023-12-20T09:06:43;4.93;;;4.53;;
37383;SDS011;23258;49.718;11.082;2023-12-20T09:09:15;4.47;;;3.95;;
37383;SDS011;23258;49.718;11.082;2023-12-20T09:11:45;3.58;;;3.28;;
37383;SDS011;23258;49.718;11.082;2023-12-20T09:14:17;2.53;;;2.42;;
37383;SDS011;23258;49.718;11.082;2023-12-20T09:16:47;3.33;;;2.97;;
37383;SDS011;23258;49.718;11.082;2023-12-20T09:19:18;2.80;;;2.60;;
37383;SDS011;23258;49.718;11.082;2023-12-20T09:21:47;2.78;;;2.58;;
37383;SDS011;23258;49.718;11.082;2023-12-20T09:24:20;2.80;;;2.60;;
37383;SDS011;23258;49.718;11.082;2023-12-20T09:26:50;3.10;;;2.90;;
37383;SDS011;23258;49.718;11.082;2023-12-20T09:29:19;3.28;;;3.08;;
37383;SDS011;23258;49.718;11.082;2023-12-20T09:31:49;3.50;;;3.20;;
37383;SDS011;23258;49.718;11.082;2023-12-20T09:34:19;2.97;;;2.58;;
37383;SDS011;23258;49.718;11.082;2023-12-20T09:36:49;2.13;;;2.03;;
37383;SDS011;23258;49.718;11.082;2023-12-20T09:39:21;2.58;;;2.38;;
37383;SDS011;23258;49.718;11.082;2023-12-20T09:41:54;4.13;;;2.60;;
37383;SDS011;23258;49.718;11.082;2023-12-20T09:44:24;2.97;;;2.28;;
37383;SDS011;23258;49.718;11.082;2023-12-20T09:46:55;3.95;;;2.33;;
37383;SDS011;23258;49.718;11.082;2023-12-20T09:49:25;2.33;;;2.13;;
37383;SDS011;23258;49.718;11.082;2023-12-20T09:51:57;2.67;;;2.20;;
37383;SDS011;23258;49.718;11.082;2023-12-20T09:54:29;2.08;;;1.98;;
37383;SDS011;23258;49.718;11.082;2023-12-20T09:57:00;3.08;;;2.58;;
37383;SDS011;23258;49.718;11.082;2023-12-20T09:59:29;4.13;;;2.42;;
37383;SDS011;23258;49.718;11.082;2023-12-20T10:01:59;3.85;;;2.55;;
37383;SDS011;23258;49.718;11.082;2023-12-20T10:04:31;3.63;;;2.65;;
37383;SDS011;23258;49.718;11.082;2023-12-20T10:07:01;2.65;;;2.42;;
37383;SDS011;23258;49.718;11.082;2023-12-20T10:09:35;2.47;;;2.30;;
37383;SDS011;23258;49.718;11.082;2023-12-20T10:12:06;2.88;;;1.98;;
37383;SDS011;23258;49.718;11.082;2023-12-20T10:14:35;3.05;;;2.20;;
37383;SDS011;23258;49.718;11.082;2023-12-20T10:17:05;2.25;;;2.13;;
37383;SDS011;23258;49.718;11.082;2023-12-20T10:19:35;1.75;;;1.65;;
37383;SDS011;23258;49.718;11.082;2023-12-20T10:22:05;3.08;;;2.40;;
37383;SDS011;23258;49.718;11.082;2023-12-20T10:24:37;2.45;;;2.03;;
37383;SDS011;23258;49.718;11.082;2023-12-20T10:27:08;2.17;;;2.03;;
37383;SDS011;23258;49.718;11.082;2023-12-20T10:29:37;3.50;;;2.38;;
37383;SDS011;23258;49.718;11.082;2023-12-20T10:34:53;2.30;;;2.03;;
37383;SDS011;23258;49.718;11.082;2023-12-20T10:37:23;4.38;;;1.67;;
37383;SDS011;23258;49.718;11.082;2023-12-20T10:39:55;5.10;;;1.73;;
37383;SDS011;23258;49.718;11.082;2023-12-20T10:42:26;1.65;;;1.58;;
37383;SDS011;23258;49.718;11.082;2023-12-20T10:44:56;2.38;;;1.98;;
37383;SDS011;23258;49.718;11.082;2023-12-20T10:47:26;2.15;;;1.75;;
37383;SDS011;23258;49.718;11.082;2023-12-20T10:49:57;1.80;;;1.70;;
37383;SDS011;23258;49.718;11.082;2023-12-20T10:52:29;2.38;;;2.10;;
37383;SDS011;23258;49.718;11.082;2023-12-20T10:55:03;1.70;;;1.60;;
37383;SDS011;23258;49.718;11.082;2023-12-20T10:57:33;3.03;;;1.90;;
37383;SDS011;23258;49.718;11.082;2023-12-20T11:00:06;2.95;;;2.55;;
37383;SDS011;23258;49.718;11.082;2023-12-20T11:02:38;2.70;;;1.98;;
37383;SDS011;23258;49.718;11.082;2023-12-20T11:05:10;2.53;;;1.60;;
37383;SDS011;23258;49.718;11.082;2023-12-20T11:07:44;4.85;;;2.10;;
37383;SDS011;23258;49.718;11.082;2023-12-20T11:10:20;1.58;;;1.48;;
37383;SDS011;23258;49.718;11.082;2023-12-20T11:12:52;5.32;;;1.83;;
37383;SDS011;23258;49.718;11.082;2023-12-20T11:15:23;2.20;;;1.65;;
37383;SDS011;23258;49.718;11.082;2023-12-20T11:17:55;2.22;;;1.98;;
37383;SDS011;23258;49.718;11.082;2023-12-20T11:20:34;3.35;;;1.60;;
37383;SDS011;23258;49.718;11.082;2023-12-20T11:23:05;3.05;;;1.55;;
37383;SDS011;23258;49.718;11.082;2023-12-20T11:25:48;1.73;;;1.63;;
37383;SDS011;23258;49.718;11.082;2023-12-20T11:28:20;3.00;;;2.00;;
37383;SDS011;23258;49.718;11.082;2023-12-20T11:30:51;1.92;;;1.73;;
37383;SDS011;23258;49.718;11.082;2023-12-20T11:33:22;2.53;;;2.03;;
37383;SDS011;23258;49.718;11.082;2023-12-20T11:35:56;1.90;;;1.80;;
37383;SDS011;23258;49.718;11.082;2023-12-20T11:38:26;5.38;;;1.50;;
37383;SDS011;23258;49.718;11.082;2023-12-20T11:40:58;1.90;;;1.73;;
37383;SDS011;23258;49.718;11.082;2023-12-20T11:43:30;1.83;;;1.60;;
37383;SDS011;23258;49.718;11.082;2023-12-20T11:46:04;1.65;;;1.52;;
37383;SDS011;23258;49.718;11.082;2023-12-20T11:48:36;1.77;;;1.67;;
37383;SDS011;23258;49.718;11.082;2023-12-20T11:51:09;1.27;;;1.17;;
37383;SDS011;23258;49.718;11.082;2023-12-20T11:53:40;2.42;;;1.98;;
37383;SDS011;23258;49.718;11.082;2023-12-20T11:56:12;1.70;;;1.60;;
37383;SDS011;23258;49.718;11.082;2023-12-20T11:58:42;1.33;;;1.30;;
37383;SDS011;23258;49.718;11.082;2023-12-20T12:01:14;2.17;;;1.90;;
37383;SDS011;23258;49.718;11.082;2023-12-20T12:03:44;1.98;;;1.80;;
37383;SDS011;23258;49.718;11.082;2023-12-20T12:06:14;1.58;;;1.48;;
37383;SDS011;23258;49.718;11.082;2023-12-20T12:08:43;2.35;;;2.10;;
37383;SDS011;23258;49.718;11.082;2023-12-20T12:11:15;2.00;;;1.60;;
37383;SDS011;23258;49.718;11.082;2023-12-20T12:13:45;2.13;;;1.92;;
37383;SDS011;23258;49.718;11.082;2023-12-20T12:16:16;1.73;;;1.63;;
37383;SDS011;23258;49.718;11.082;2023-12-20T12:18:54;3.60;;;1.83;;
37383;SDS011;23258;49.718;11.082;2023-12-20T12:21:24;2.50;;;1.98;;
37383;SDS011;23258;49.718;11.082;2023-12-20T12:24:08;2.17;;;2.05;;
37383;SDS011;23258;49.718;11.082;2023-12-20T12:26:41;3.30;;;2.58;;
37383;SDS011;23258;49.718;11.082;2023-12-20T12:29:10;2.03;;;1.83;;
37383;SDS011;23258;49.718;11.082;2023-12-20T12:31:40;3.72;;;1.92;;
37383;SDS011;23258;49.718;11.082;2023-12-20T12:34:10;2.78;;;2.50;;
37383;SDS011;23258;49.718;11.082;2023-12-20T12:36:40;2.63;;;1.70;;
37383;SDS011;23258;49.718;11.082;2023-12-20T12:39:12;1.95;;;1.75;;
37383;SDS011;23258;49.718;11.082;2023-12-20T12:41:44;4.20;;;1.67;;
37383;SDS011;23258;49.718;11.082;2023-12-20T12:44:14;3.70;;;2.25;;
37383;SDS011;23258;49.718;11.082;2023-12-20T12:46:44;1.40;;;1.30;;
37383;SDS011;23258;49.718;11.082;2023-12-20T12:49:16;2.10;;;1.10;;
37383;SDS011;23258;49.718;11.082;2023-12-20T12:51:46;5.60;;;2.42;;
37383;SDS011;23258;49.718;11.082;2023-12-20T12:54:16;1.23;;;1.23;;
37383;SDS011;23258;49.718;11.082;2023-12-20T12:56:48;2.10;;;1.40;;
37383;SDS011;23258;49.718;11.082;2023-12-20T12:59:19;2.03;;;1.60;;
37383;SDS011;23258;49.718;11.082;2023-12-20T13:01:49;1.58;;;1.30;;
37383;SDS011;23258;49.718;11.082;2023-12-20T13:04:20;1.75;;;1.58;;
37383;SDS011;23258;49.718;11.082;2023-12-20T13:06:49;2.50;;;1.75;;
37383;SDS011;23258;49.718;11.082;2023-12-20T13:09:19;2.28;;;2.08;;
37383;SDS011;23258;49.718;11.082;2023-12-20T13:11:54;1.88;;;1.75;;
37383;SDS011;23258;49.718;11.082;2023-12-20T13:14:24;3.00;;;1.98;;
37383;SDS011;23258;49.718;11.082;2023-12-20T13:16:53;4.05;;;2.63;;
37383;SDS011;23258;49.718;11.082;2023-12-20T13:19:23;3.05;;;2.17;;
37383;SDS011;23258;49.718;11.082;2023-12-20T13:21:53;2.33;;;2.22;;
37383;SDS011;23258;49.718;11.082;2023-12-20T13:24:23;2.63;;;2.38;;
37383;SDS011;23258;49.718;11.082;2023-12-20T13:26:55;4.35;;;3.00;;
37383;SDS011;23258;49.718;11.082;2023-12-20T13:29:25;1.77;;;1.67;;
37383;SDS011;23258;49.718;11.082;2023-12-20T13:31:55;3.33;;;1.70;;
37383;SDS011;23258;49.718;11.082;2023-12-20T13:34:26;2.03;;;1.75;;
37383;SDS011;23258;49.718;11.082;2023-12-20T13:36:56;1.55;;;1.45;;
37383;SDS011;23258;49.718;11.082;2023-12-20T13:39:26;1.20;;;1.20;;
37383;SDS011;23258;49.718;11.082;2023-12-20T13:41:59;4.30;;;2.05;;
37383;SDS011;23258;49.718;11.082;2023-12-20T13:44:28;3.63;;;1.40;;
37383;SDS011;23258;49.718;11.082;2023-12-20T13:46:58;2.25;;;1.48;;
37383;SDS011;23258;49.718;11.082;2023-12-20T13:49:28;4.15;;;2.17;;
37383;SDS011;23258;49.718;11.082;2023-12-20T13:51:58;2.20;;;1.70;;
37383;SDS011;23258;49.718;11.082;2023-12-20T13:54:30;1.58;;;1.48;;
37383;SDS011;23258;49.718;11.082;2023-12-20T13:57:03;1.77;;;1.70;;
37383;SDS011;23258;49.718;11.082;2023-12-20T13:59:47;2.83;;;2.05;;
37383;SDS011;23258;49.718;11.082;2023-12-20T14:02:17;4.70;;;2.85;;
37383;SDS011;23258;49.718;11.082;2023-12-20T14:04:46;2.05;;;1.92;;
37383;SDS011;23258;49.718;11.082;2023-12-20T14:07:16;2.45;;;2.10;;
37383;SDS011;23258;49.718;11.082;2023-12-20T14:09:48;2.78;;;2.00;;
37383;SDS011;23258;49.718;11.082;2023-12-20T14:12:20;1.95;;;1.75;;
37383;SDS011;23258;49.718;11.082;2023-12-20T14:14:50;3.72;;;1.88;;
37383;SDS011;23258;49.718;11.082;2023-12-20T14:17:22;3.08;;;2.78;;
37383;SDS011;23258;49.718;11.082;2023-12-20T14:19:52;5.90;;;2.08;;
37383;SDS011;23258;49.718;11.082;2023-12-20T14:22:22;1.77;;;1.02;;
37383;SDS011;23258;49.718;11.082;2023-12-20T14:24:52;2.67;;;2.42;;
37383;SDS011;23258;49.718;11.082;2023-12-20T14:27:26;2.65;;;2.20;;
37383;SDS011;23258;49.718;11.082;2023-12-20T14:29:57;2.83;;;2.25;;
37383;SDS011;23258;49.718;11.082;2023-12-20T14:32:27;1.67;;;1.48;;
37383;SDS011;23258;49.718;11.082;2023-12-20T14:34:57;1.75;;;1.63;;
37383;SDS011;23258;49.718;11.082;2023-12-20T14:37:27;1.63;;;1.52;;
37383;SDS011;23258;49.718;11.082;2023-12-20T14:39:57;1.90;;;1.80;;
37383;SDS011;23258;49.718;11.082;2023-12-20T14:42:27;4.28;;;1.65;;
37383;SDS011;23258;49.718;11.082;2023-12-20T14:44:56;1.73;;;1.58;;
37383;SDS011;23258;49.718;11.082;2023-12-20T14:47:26;1.75;;;1.65;;
37383;SDS011;23258;49.718;11.082;2023-12-20T14:49:56;2.13;;;1.92;;
37383;SDS011;23258;49.718;11.082;2023-12-20T14:52:26;3.42;;;1.92;;
37383;SDS011;23258;49.718;11.082;2023-12-20T14:54:55;2.22;;;1.73;;
37383;SDS011;23258;49.718;11.082;2023-12-20T14:57:28;1.92;;;1.83;;